Time;durP1;ratioP1;P1;durP2;ratioP2;P2;SDS_P1;SDS_P2;PMS_P1;PMS_P2;Temp;Humidity;BMP_temperature;BMP_pressure;BME280_temperature;BME280_humidity;BME280_pressure;Samples;Min_cycle;Max_cycle;Signal;HPM_P1;HPM_P2
2022/04/18 00:00:58;;;;;;;40.88;23.70;;;4.80;99.90;;;;;;2495172;23;20430;-72
2022/04/18 00:01:58;;;;;;;41.00;23.85;;;4.80;99.90;;;;;;2495123;23;20035;-72
2022/04/18 00:03:03;;;;;;;34.90;22.30;;;4.80;99.90;;;;;;2507241;23;20015;-70
2022/04/18 00:04:04;;;;;;;36.25;21.40;;;4.80;99.90;;;;;;2507770;23;20007;-71
2022/04/18 00:05:05;;;;;;;36.45;21.60;;;4.80;99.90;;;;;;2508092;23;20003;-74
2022/04/18 00:06:05;;;;;;;36.75;21.73;;;4.70;99.90;;;;;;2507829;23;20022;-71
2022/04/18 00:07:06;;;;;;;40.42;23.83;;;4.70;99.90;;;;;;2507899;23;20003;-71
2022/04/18 00:08:07;;;;;;;43.58;24.55;;;4.70;99.90;;;;;;2508319;23;20634;-73
2022/04/18 00:09:08;;;;;;;42.65;24.23;;;4.70;99.90;;;;;;2508279;23;20031;-71
2022/04/18 00:10:09;;;;;;;42.28;23.13;;;4.70;99.90;;;;;;2483442;23;20012;-72
2022/04/18 00:11:10;;;;;;;40.80;22.98;;;4.70;99.90;;;;;;2483911;23;20011;-72
2022/04/18 00:12:11;;;;;;;40.05;22.85;;;4.60;99.90;;;;;;2508114;23;20375;-72
2022/04/18 00:13:11;;;;;;;37.35;22.05;;;4.60;99.90;;;;;;2482807;23;20004;-71
2022/04/18 00:14:13;;;;;;;35.03;22.08;;;4.60;99.90;;;;;;2483193;23;20072;-71
2022/04/18 00:15:13;;;;;;;35.30;21.15;;;4.60;99.90;;;;;;2507491;23;20037;-71
2022/04/18 00:16:14;;;;;;;33.40;21.08;;;4.60;99.90;;;;;;2507381;23;20010;-72
2022/04/18 00:17:14;;;;;;;32.30;20.08;;;4.60;99.90;;;;;;2508097;23;20070;-72
2022/04/18 00:18:15;;;;;;;30.30;20.30;;;4.60;99.90;;;;;;2484288;23;20004;-72
2022/04/18 00:19:16;;;;;;;31.10;19.77;;;4.60;99.90;;;;;;2483485;23;20000;-72
2022/04/18 00:20:17;;;;;;;28.80;19.05;;;4.60;99.90;;;;;;2495127;23;20007;-71
2022/04/18 00:21:18;;;;;;;27.40;18.75;;;4.60;99.90;;;;;;2495347;23;20032;-72
2022/04/18 00:22:19;;;;;;;26.20;18.35;;;4.60;99.90;;;;;;2495285;23;20074;-72
2022/04/18 00:23:19;;;;;;;26.17;18.95;;;4.60;99.90;;;;;;2494682;23;20003;-71
2022/04/18 00:24:21;;;;;;;24.02;17.70;;;4.60;99.90;;;;;;2495179;23;20008;-71
2022/04/18 00:25:21;;;;;;;24.73;18.23;;;4.60;99.90;;;;;;2495372;23;20011;-72
2022/04/18 00:26:22;;;;;;;24.38;17.88;;;4.60;99.90;;;;;;2495136;23;20030;-72
2022/04/18 00:27:22;;;;;;;26.33;18.48;;;4.60;99.90;;;;;;2495748;23;20019;-70
2022/04/18 00:28:23;;;;;;;24.85;17.95;;;4.60;99.90;;;;;;2494817;23;20034;-72
2022/04/18 00:29:24;;;;;;;25.98;18.52;;;4.60;99.90;;;;;;2495347;23;20667;-71
2022/04/18 00:30:24;;;;;;;28.73;18.88;;;4.50;99.90;;;;;;2507506;23;20010;-72
2022/04/18 00:31:25;;;;;;;25.85;18.73;;;4.60;99.90;;;;;;2495121;23;19999;-71
2022/04/18 00:32:26;;;;;;;28.92;19.02;;;4.50;99.90;;;;;;2495587;23;20063;-71
2022/04/18 00:33:28;;;;;;;24.88;18.10;;;4.50;99.90;;;;;;2508316;23;19999;-70
2022/04/18 00:34:28;;;;;;;25.10;18.10;;;4.50;99.90;;;;;;2507610;23;20011;-73
2022/04/18 00:35:29;;;;;;;25.88;19.02;;;4.50;99.90;;;;;;2507056;23;20094;-72
2022/04/18 00:36:30;;;;;;;27.48;19.17;;;4.50;99.90;;;;;;2483713;23;20682;-72
2022/04/18 00:37:32;;;;;;;25.33;18.65;;;4.50;99.90;;;;;;2484547;23;20106;-73
2022/04/18 00:38:32;;;;;;;24.95;18.65;;;4.50;99.90;;;;;;2496310;23;20003;-72
2022/04/18 00:39:33;;;;;;;26.40;19.27;;;4.50;99.90;;;;;;2507015;23;20094;-74
2022/04/18 00:40:34;;;;;;;24.10;18.20;;;4.50;99.90;;;;;;2494843;23;20014;-72
2022/04/18 00:41:34;;;;;;;24.08;18.40;;;4.50;99.90;;;;;;2495358;23;20015;-73
2022/04/18 00:42:35;;;;;;;24.63;18.70;;;4.50;99.90;;;;;;2507899;23;20003;-72
2022/04/18 00:43:44;;;;;;;26.23;18.83;;;4.50;99.90;;;;;;2507430;23;20528;-72
2022/04/18 00:44:45;;;;;;;26.70;19.13;;;4.50;99.90;;;;;;2494920;23;20091;-72
2022/04/18 00:45:45;;;;;;;30.33;20.65;;;4.50;99.90;;;;;;2483614;23;20584;-72
2022/04/18 00:46:46;;;;;;;34.00;22.05;;;4.40;99.90;;;;;;2495102;23;20003;-72
2022/04/18 00:47:47;;;;;;;32.40;21.95;;;4.40;99.90;;;;;;2507036;23;20490;-72
2022/04/18 00:48:48;;;;;;;37.70;23.25;;;4.40;99.90;;;;;;2507526;23;20610;-73
2022/04/18 00:49:49;;;;;;;38.58;23.73;;;4.50;99.90;;;;;;2508040;23;20082;-72
2022/04/18 00:50:50;;;;;;;46.50;26.80;;;4.40;99.90;;;;;;2507571;23;20018;-73
2022/04/18 00:51:51;;;;;;;43.50;25.90;;;4.40;99.90;;;;;;2495597;23;20022;-72
2022/04/18 00:52:53;;;;;;;48.05;26.52;;;4.40;99.90;;;;;;2507241;23;20085;-71
2022/04/18 00:53:56;;;;;;;49.85;26.20;;;4.40;99.90;;;;;;2483916;23;20364;-73
2022/04/18 00:55:00;;;;;;;42.45;25.05;;;4.40;99.90;;;;;;2472460;23;20555;-72
2022/04/18 00:56:01;;;;;;;44.15;25.08;;;4.40;99.90;;;;;;2483736;23;20020;-72
2022/04/18 00:57:03;;;;;;;43.38;24.42;;;4.40;99.90;;;;;;2494983;23;20011;-72
2022/04/18 00:58:04;;;;;;;38.10;23.33;;;4.40;99.90;;;;;;2494988;23;20015;-71
2022/04/18 00:59:05;;;;;;;33.97;21.90;;;4.40;99.90;;;;;;2483167;23;20471;-71
2022/04/18 01:00:06;;;;;;;33.67;21.48;;;4.40;99.90;;;;;;2494712;23;20023;-70
2022/04/18 01:01:08;;;;;;;32.85;21.85;;;4.40;99.90;;;;;;2495033;23;20082;-71
2022/04/18 01:02:13;;;;;;;30.08;21.17;;;4.40;99.90;;;;;;2495195;23;20011;-72
2022/04/18 01:03:13;;;;;;;30.65;21.45;;;4.40;99.90;;;;;;2506165;23;19999;-72
2022/04/18 01:04:14;;;;;;;31.27;21.90;;;4.40;99.90;;;;;;2506574;23;20065;-71
2022/04/18 01:05:15;;;;;;;29.63;21.45;;;4.30;99.90;;;;;;2483099;23;20043;-72
2022/04/18 01:06:17;;;;;;;31.48;22.10;;;4.30;99.90;;;;;;2494937;23;20472;-71
2022/04/18 01:07:19;;;;;;;28.63;21.05;;;4.30;99.90;;;;;;2495045;23;20063;-71
2022/04/18 01:08:20;;;;;;;29.23;21.65;;;4.30;99.90;;;;;;2494871;23;20011;-72
2022/04/18 01:09:21;;;;;;;29.08;21.48;;;4.30;99.90;;;;;;2506408;23;20003;-73
2022/04/18 01:10:21;;;;;;;29.05;21.05;;;4.30;99.90;;;;;;2506443;23;20106;-70
2022/04/18 01:11:22;;;;;;;28.00;20.73;;;4.20;99.90;;;;;;2507014;23;20017;-72
2022/04/18 01:12:50;;;;;;;28.45;20.85;;;4.20;99.90;;;;;;2507290;23;20013;-71
2022/04/18 01:14:14;;;;;;;29.98;20.85;;;4.20;99.90;;;;;;2505261;23;20078;-72
2022/04/18 01:15:24;;;;;;;27.70;20.27;;;4.20;99.90;;;;;;2510080;23;20014;-73
2022/04/18 01:16:43;;;;;;;26.63;20.15;;;4.20;99.90;;;;;;2510270;23;20015;-72
2022/04/18 01:17:52;;;;;;;27.05;20.00;;;4.20;99.90;;;;;;2508800;23;20003;-72
2022/04/18 01:19:13;;;;;;;;;;;4.20;99.90;;;;;;2508499;23;20015;-72
2022/04/18 01:20:35;;;;;;;30.65;21.13;;;4.20;99.90;;;;;;2508221;23;19913;-73
2022/04/18 01:21:46;;;;;;;30.83;21.35;;;4.10;99.90;;;;;;2496303;23;20047;-73
2022/04/18 01:23:19;;;;;;;32.47;21.95;;;4.10;99.90;;;;;;2479067;23;20091;-72
2022/04/18 01:29:57;;;;;;;28.35;20.55;;;4.00;99.90;;;;;;2498366;23;20580;-71
2022/04/18 01:30:57;;;;;;;29.63;21.30;;;4.00;99.90;;;;;;2494740;23;20051;-72
2022/04/18 01:31:58;;;;;;;27.85;20.60;;;4.00;99.90;;;;;;2482988;23;20012;-72
2022/04/18 01:32:59;;;;;;;29.13;21.17;;;4.00;99.90;;;;;;2483001;23;20318;-71
2022/04/18 01:34:01;;;;;;;28.35;20.40;;;4.00;99.90;;;;;;2483282;23;20031;-71
2022/04/18 01:35:02;;;;;;;28.90;20.70;;;4.00;99.90;;;;;;2496215;23;20015;-73
2022/04/18 01:36:07;;;;;;;33.42;21.42;;;4.00;99.90;;;;;;2507879;23;20007;-72
2022/04/18 01:37:08;;;;;;;36.35;22.75;;;3.90;99.90;;;;;;2484383;23;20036;-72
2022/04/18 01:38:09;;;;;;;39.28;24.13;;;3.90;99.90;;;;;;2484288;23;20031;-73
2022/04/18 01:39:09;;;;;;;44.65;24.00;;;3.90;99.90;;;;;;2495486;23;20055;-73
2022/04/18 01:40:10;;;;;;;38.60;24.00;;;3.90;99.90;;;;;;2494471;23;20000;-73
2022/04/18 01:41:12;;;;;;;35.88;23.25;;;3.90;99.90;;;;;;2494790;23;20003;-71
2022/04/18 01:42:13;;;;;;;33.78;22.00;;;3.90;99.90;;;;;;2495031;23;20103;-72
2022/04/18 01:43:13;;;;;;;32.08;21.48;;;3.90;99.90;;;;;;2505970;23;20436;-72
2022/04/18 01:44:16;;;;;;;31.63;20.77;;;3.90;99.90;;;;;;2506470;23;20007;-72
2022/04/18 01:45:17;;;;;;;34.00;21.45;;;3.90;99.90;;;;;;2514219;23;20014;-70
2022/04/18 01:46:23;;;;;;;31.33;21.15;;;3.90;99.90;;;;;;2494776;23;20438;-71
2022/04/18 01:47:23;;;;;;;29.63;20.10;;;3.90;99.90;;;;;;2494681;23;20011;-71
2022/04/18 01:48:24;;;;;;;31.13;19.63;;;3.80;99.90;;;;;;2506733;23;20007;-70
2022/04/18 01:49:25;;;;;;;29.67;20.17;;;3.90;99.90;;;;;;2495059;23;20027;-71
2022/04/18 01:50:25;;;;;;;31.42;20.48;;;3.90;99.90;;;;;;2482767;23;20519;-71
2022/04/18 01:51:26;;;;;;;29.38;20.17;;;3.90;99.90;;;;;;2494945;23;20888;-72
2022/04/18 01:52:26;;;;;;;29.35;19.83;;;3.90;99.90;;;;;;2507363;23;20078;-72
2022/04/18 01:53:30;;;;;;;30.45;20.55;;;3.80;99.90;;;;;;2494011;23;20010;-71
2022/04/18 01:54:30;;;;;;;31.23;20.60;;;3.80;99.90;;;;;;2495207;23;20055;-72
2022/04/18 01:55:32;;;;;;;30.65;20.30;;;3.80;99.90;;;;;;2506565;23;20018;-71
2022/04/18 01:56:33;;;;;;;29.80;20.65;;;3.80;99.90;;;;;;2507270;23;20372;-72
2022/04/18 01:57:35;;;;;;;27.23;19.13;;;3.80;99.90;;;;;;2506638;23;20015;-72
2022/04/18 01:58:36;;;;;;;27.92;18.90;;;3.80;99.90;;;;;;2506426;23;20042;-71
2022/04/18 01:59:36;;;;;;;26.80;19.23;;;3.80;99.90;;;;;;2494684;23;20031;-70
2022/04/18 02:00:37;;;;;;;26.42;18.88;;;3.70;99.90;;;;;;2494555;23;20503;-72
2022/04/18 02:01:38;;;;;;;27.80;19.67;;;3.80;99.90;;;;;;2483165;23;20016;-71
2022/04/18 02:02:39;;;;;;;28.75;20.58;;;3.80;99.90;;;;;;2494758;23;20015;-72
2022/04/18 02:03:42;;;;;;;29.17;20.30;;;3.80;99.90;;;;;;2518045;23;20002;-73
2022/04/18 02:04:43;;;;;;;28.55;21.00;;;3.70;99.90;;;;;;2506787;23;20007;-73
2022/04/18 02:05:47;;;;;;;30.95;20.70;;;3.70;99.90;;;;;;2494848;23;20090;-71
2022/04/18 02:06:47;;;;;;;29.23;20.58;;;3.70;99.90;;;;;;2483191;23;20031;-72
2022/04/18 02:07:48;;;;;;;29.20;20.48;;;3.60;99.90;;;;;;2482798;23;20015;-72
2022/04/18 02:08:49;;;;;;;28.63;20.77;;;3.60;99.90;;;;;;2482943;23;20016;-73
2022/04/18 02:09:53;;;;;;;28.80;20.63;;;3.60;99.90;;;;;;2483530;23;20031;-72
2022/04/18 02:10:54;;;;;;;29.67;20.70;;;3.60;99.90;;;;;;2494815;23;20019;-73
2022/04/18 02:12:06;;;;;;;26.95;20.17;;;3.60;99.90;;;;;;2504897;23;20126;-71
2022/04/18 02:13:14;;;;;;;29.60;20.98;;;3.60;99.90;;;;;;2495631;23;20058;-72
2022/04/18 02:14:14;;;;;;;26.55;19.92;;;3.60;99.90;;;;;;2495766;23;20123;-71
2022/04/18 02:15:16;;;;;;;24.60;19.35;;;3.60;99.90;;;;;;2483009;23;20081;-73
2022/04/18 02:16:28;;;;;;;25.15;18.95;;;3.60;99.90;;;;;;2496331;23;20070;-72
2022/04/18 02:17:29;;;;;;;26.20;19.33;;;3.60;99.90;;;;;;2506633;23;20093;-72
2022/04/18 02:18:29;;;;;;;25.83;19.05;;;3.60;99.90;;;;;;2506496;23;20063;-72
2022/04/18 02:19:30;;;;;;;28.33;19.88;;;3.60;99.90;;;;;;2506555;23;20017;-71
2022/04/18 02:20:33;;;;;;;25.27;19.83;;;3.60;99.90;;;;;;2505883;23;20030;-72
2022/04/18 02:21:33;;;;;;;26.48;19.77;;;3.50;99.90;;;;;;2482678;23;20030;-73
2022/04/18 02:22:34;;;;;;;26.45;19.83;;;3.50;99.90;;;;;;2482965;23;20011;-72
2022/04/18 02:23:35;;;;;;;28.60;20.15;;;3.50;99.90;;;;;;2494062;23;20508;-72
2022/04/18 02:24:35;;;;;;;26.15;20.10;;;3.50;99.90;;;;;;2507208;23;20018;-72
2022/04/18 02:25:36;;;;;;;28.77;21.05;;;3.50;99.90;;;;;;2507223;23;20779;-73
2022/04/18 02:26:43;;;;;;;29.52;21.15;;;3.50;99.90;;;;;;2482961;23;20011;-72
2022/04/18 02:27:47;;;;;;;29.02;21.20;;;3.50;99.90;;;;;;2497039;23;20070;-71
2022/04/18 02:28:48;;;;;;;29.08;21.08;;;3.50;99.90;;;;;;2506551;23;20013;-72
2022/04/18 02:29:48;;;;;;;28.25;20.73;;;3.50;99.90;;;;;;2506640;23;20014;-71
2022/04/18 02:30:49;;;;;;;29.77;20.67;;;3.50;99.90;;;;;;2518320;23;20082;-73
2022/04/18 02:33:10;;;;;;;25.92;19.75;;;3.50;99.90;;;;;;2514615;23;20005;-72
2022/04/18 02:34:10;;;;;;;28.05;19.55;;;3.50;99.90;;;;;;2506410;23;20034;-71
2022/04/18 02:35:11;;;;;;;26.33;20.08;;;3.50;99.90;;;;;;2494839;23;20305;-72
2022/04/18 02:36:12;;;;;;;25.05;19.55;;;3.40;99.90;;;;;;2518246;23;20090;-72
2022/04/18 02:37:13;;;;;;;27.92;20.17;;;3.40;99.90;;;;;;2506439;23;20586;-72
2022/04/18 02:38:14;;;;;;;26.63;19.60;;;3.40;99.90;;;;;;2506410;23;20515;-72
2022/04/18 02:39:20;;;;;;;26.20;19.67;;;3.40;99.90;;;;;;2505463;23;20005;-72
2022/04/18 02:40:22;;;;;;;26.15;19.70;;;3.40;99.90;;;;;;2482710;23;19996;-71
2022/04/18 02:41:23;;;;;;;25.85;19.48;;;3.40;99.90;;;;;;2483328;23;20036;-72
2022/04/18 02:42:24;;;;;;;25.10;18.92;;;3.40;99.90;;;;;;2482907;23;20064;-73
2022/04/18 02:43:24;;;;;;;26.95;19.95;;;3.40;99.90;;;;;;2482497;23;20413;-73
2022/04/18 02:44:29;;;;;;;27.02;19.20;;;3.40;99.90;;;;;;2483429;23;20046;-73
2022/04/18 02:45:31;;;;;;;25.55;19.35;;;3.40;99.90;;;;;;2494798;23;20023;-72
2022/04/18 02:46:50;;;;;;;;;;;3.40;99.90;;;;;;2483706;23;20086;-72
2022/04/18 02:47:51;;;;;;;27.02;19.65;;;3.40;99.90;;;;;;2471510;23;19907;-72
2022/04/18 02:48:53;;;;;;;26.13;19.88;;;3.30;99.90;;;;;;2471457;24;20779;-72
2022/04/18 02:49:55;;;;;;;28.05;19.73;;;3.30;99.90;;;;;;2471567;23;20015;-72
2022/04/18 02:50:56;;;;;;;29.73;20.27;;;3.30;99.90;;;;;;2482986;23;20034;-72
2022/04/18 02:52:00;;;;;;;29.58;20.75;;;3.30;99.90;;;;;;2483078;23;20008;-72
2022/04/18 02:53:01;;;;;;;28.98;20.40;;;3.30;99.90;;;;;;2482929;23;20014;-73
2022/04/18 02:54:13;;;;;;;30.98;20.58;;;3.30;99.90;;;;;;2494212;23;20459;-71
2022/04/18 02:55:14;;;;;;;31.85;21.25;;;3.30;99.90;;;;;;2482827;23;20008;-72
2022/04/18 02:56:15;;;;;;;31.13;20.75;;;3.30;99.90;;;;;;2482876;23;20352;-72
2022/04/18 02:57:21;;;;;;;31.45;20.92;;;3.30;99.90;;;;;;2494572;23;20014;-73
2022/04/18 02:58:21;;;;;;;31.45;20.63;;;3.30;99.90;;;;;;2482893;23;20008;-73
2022/04/18 02:59:23;;;;;;;30.58;21.38;;;3.30;99.90;;;;;;2483142;23;20003;-72
2022/04/18 03:00:24;;;;;;;31.33;21.00;;;3.20;99.90;;;;;;2494212;23;20003;-72
2022/04/18 03:01:25;;;;;;;30.85;21.27;;;3.20;99.90;;;;;;2471252;24;20013;-71
2022/04/18 03:02:28;;;;;;;29.55;20.80;;;3.30;99.90;;;;;;2472197;23;20072;-72
2022/04/18 03:03:30;;;;;;;29.55;20.73;;;3.20;99.90;;;;;;2482358;23;20066;-71
2022/04/18 03:04:32;;;;;;;30.63;21.58;;;3.20;99.90;;;;;;2482889;23;20044;-72
2022/04/18 03:05:33;;;;;;;30.38;20.67;;;3.20;99.90;;;;;;2494872;23;20539;-72
2022/04/18 03:06:33;;;;;;;30.17;21.27;;;3.20;99.90;;;;;;2494693;23;20011;-72
2022/04/18 03:07:34;;;;;;;30.45;20.83;;;3.20;99.90;;;;;;2482978;23;20106;-72
2022/04/18 03:08:35;;;;;;;31.42;21.40;;;3.20;99.90;;;;;;2483075;23;20012;-73
2022/04/18 03:09:36;;;;;;;28.25;20.42;;;3.20;99.90;;;;;;2494302;23;20011;-72
2022/04/18 03:12:06;;;;;;;31.15;21.15;;;3.20;99.90;;;;;;2495558;23;20007;-70
2022/04/18 03:13:06;;;;;;;31.45;21.27;;;3.20;99.90;;;;;;2482198;23;20019;-71
2022/04/18 03:14:07;;;;;;;31.58;21.83;;;3.20;99.90;;;;;;2482783;23;20441;-71
2022/04/18 03:15:14;;;;;;;32.00;21.38;;;3.10;99.90;;;;;;2493341;23;20055;-71
2022/04/18 03:16:18;;;;;;;30.75;21.50;;;3.10;99.90;;;;;;2482774;23;20011;-71
2022/04/18 03:17:19;;;;;;;29.17;20.73;;;3.10;99.90;;;;;;2482848;23;20014;-71
2022/04/18 03:18:20;;;;;;;36.35;22.67;;;3.10;99.90;;;;;;2482766;23;20090;-71
2022/04/18 03:19:21;;;;;;;37.90;22.63;;;3.10;99.90;;;;;;2482929;23;20283;-71
2022/04/18 03:20:29;;;;;;;37.58;23.85;;;3.10;99.90;;;;;;2482694;23;20018;-71
2022/04/18 03:21:30;;;;;;;37.40;22.90;;;3.10;99.90;;;;;;2482888;23;20461;-71
2022/04/18 03:22:34;;;;;;;37.38;22.77;;;3.10;99.90;;;;;;2494418;23;20030;-71
2022/04/18 03:23:44;;;;;;;40.83;24.20;;;3.10;99.90;;;;;;2482173;23;20019;-72
2022/04/18 03:24:49;;;;;;;41.80;24.60;;;3.10;99.90;;;;;;2483939;23;20011;-70
2022/04/18 03:25:57;;;;;;;41.88;24.60;;;3.10;99.90;;;;;;2494379;23;20011;-71
2022/04/18 03:27:01;;;;;;;40.13;24.02;;;3.00;99.90;;;;;;2493966;23;20011;-71
2022/04/18 03:28:05;;;;;;;40.38;24.75;;;3.00;99.90;;;;;;2472164;23;20095;-71
2022/04/18 03:29:06;;;;;;;41.05;24.58;;;3.00;99.90;;;;;;2482777;23;20433;-71
2022/04/18 03:30:07;;;;;;;39.53;24.35;;;3.00;99.90;;;;;;2494253;23;20102;-71
2022/04/18 03:31:17;;;;;;;37.28;23.50;;;3.00;99.90;;;;;;2482762;23;20007;-71
2022/04/18 03:32:17;;;;;;;34.88;22.73;;;3.00;99.90;;;;;;2482641;23;20098;-71
2022/04/18 03:33:18;;;;;;;34.67;22.75;;;3.00;99.90;;;;;;2494026;23;20038;-71
2022/04/18 03:34:21;;;;;;;35.47;21.75;;;3.00;99.90;;;;;;2494467;23;20015;-71
2022/04/18 03:35:21;;;;;;;35.03;22.92;;;3.00;99.90;;;;;;2482675;23;20020;-71
2022/04/18 03:40:21;;;;;;;36.30;22.55;;;2.90;99.90;;;;;;2486213;23;20006;-71
2022/04/18 03:41:22;;;;;;;36.85;23.00;;;2.90;99.90;;;;;;2494435;23;20015;-70
2022/04/18 03:42:31;;;;;;;35.20;23.08;;;2.90;99.90;;;;;;2494533;23;20039;-71
2022/04/18 03:43:35;;;;;;;40.13;24.02;;;2.90;99.90;;;;;;2482172;23;20094;-71
2022/04/18 03:44:43;;;;;;;36.05;23.15;;;2.90;99.90;;;;;;2482807;23;20012;-70
2022/04/18 03:45:44;;;;;;;34.97;23.35;;;2.90;99.90;;;;;;2506492;23;20488;-70
2022/04/18 03:46:44;;;;;;;33.90;23.15;;;2.90;99.90;;;;;;2494284;23;20007;-71
2022/04/18 03:47:45;;;;;;;33.03;23.33;;;2.80;99.90;;;;;;2482811;23;20392;-71
2022/04/18 03:48:46;;;;;;;33.70;24.08;;;2.80;99.90;;;;;;2494520;23;20475;-71
2022/04/18 03:49:46;;;;;;;32.40;23.38;;;2.80;99.90;;;;;;2506787;23;20011;-72
2022/04/18 03:50:47;;;;;;;34.47;25.27;;;2.80;99.90;;;;;;2494203;23;20011;-71
2022/04/18 03:51:48;;;;;;;35.80;24.90;;;2.80;99.90;;;;;;2494573;23;20349;-71
2022/04/18 03:52:49;;;;;;;32.90;24.27;;;2.80;99.90;;;;;;2494487;23;20015;-71
2022/04/18 03:54:05;;;;;;;34.58;24.83;;;2.80;99.90;;;;;;2497330;23;20034;-71
2022/04/18 03:55:09;;;;;;;32.42;23.88;;;2.80;99.90;;;;;;2494534;23;20014;-71
2022/04/18 03:56:10;;;;;;;31.90;23.77;;;2.80;99.90;;;;;;2494690;23;20086;-71
2022/04/18 03:57:33;;;;;;;30.77;23.20;;;2.80;99.90;;;;;;2506618;23;20013;-71
2022/04/18 03:58:39;;;;;;;32.70;23.70;;;2.70;99.90;;;;;;2506360;23;20066;-71
2022/04/18 03:59:41;;;;;;;28.92;22.70;;;2.80;99.90;;;;;;2506342;23;20019;-71
2022/04/18 04:00:43;;;;;;;28.95;22.55;;;2.70;99.90;;;;;;2505842;23;20038;-71
2022/04/18 04:01:44;;;;;;;31.17;22.75;;;2.70;99.90;;;;;;2494601;23;20066;-71
2022/04/18 04:02:46;;;;;;;28.60;21.45;;;2.70;99.90;;;;;;2482958;23;20039;-71
2022/04/18 04:03:53;;;;;;;28.38;22.30;;;2.80;99.90;;;;;;2495409;23;20026;-72
2022/04/18 04:04:54;;;;;;;29.17;21.95;;;2.80;99.90;;;;;;2506167;23;20007;-71
2022/04/18 04:05:55;;;;;;;29.13;21.85;;;2.80;99.90;;;;;;2506297;23;20007;-72
2022/04/18 04:06:57;;;;;;;26.95;21.30;;;2.80;99.90;;;;;;2494368;23;20011;-71
2022/04/18 04:07:57;;;;;;;31.17;22.85;;;2.80;99.90;;;;;;2482618;23;20027;-71
2022/04/18 04:09:06;;;;;;;29.75;22.70;;;2.80;99.90;;;;;;2495959;23;20022;-72
2022/04/18 04:10:09;;;;;;;29.90;22.25;;;2.80;99.90;;;;;;2506037;23;20036;-70
2022/04/18 04:11:10;;;;;;;31.83;23.23;;;2.80;99.90;;;;;;2506204;23;20030;-71
2022/04/18 04:12:13;;;;;;;29.70;22.10;;;2.80;99.90;;;;;;2494623;23;20011;-71
2022/04/18 04:13:33;;;;;;;30.40;21.92;;;2.80;99.90;;;;;;2486075;23;20012;-71
2022/04/18 04:14:41;;;;;;;28.85;21.42;;;2.80;99.90;;;;;;2484009;23;20016;-72
2022/04/18 04:15:41;;;;;;;28.00;21.73;;;2.80;99.90;;;;;;2494643;23;20022;-71
2022/04/18 04:16:50;;;;;;;30.30;22.50;;;2.80;99.90;;;;;;2506138;23;20007;-72
2022/04/18 04:17:50;;;;;;;32.00;22.48;;;2.80;99.90;;;;;;2506365;23;20006;-71
2022/04/18 04:18:51;;;;;;;28.23;21.73;;;2.80;99.90;;;;;;2506207;23;20730;-71
2022/04/18 04:19:52;;;;;;;28.77;21.63;;;2.80;99.90;;;;;;2506220;23;20037;-72
2022/04/18 04:21:04;;;;;;;28.10;21.30;;;2.80;99.90;;;;;;2494546;23;20000;-71
2022/04/18 04:22:04;;;;;;;29.50;21.90;;;2.80;99.90;;;;;;2494431;23;20023;-71
2022/04/18 04:23:05;;;;;;;30.17;21.90;;;2.90;99.90;;;;;;2493790;23;20087;-72
2022/04/18 04:24:30;;;;;;;29.00;21.73;;;2.80;99.90;;;;;;2475505;23;20007;-72
2022/04/18 04:25:32;;;;;;;29.60;22.42;;;2.90;99.90;;;;;;2488093;23;20070;-72
2022/04/18 04:26:33;;;;;;;27.50;21.33;;;2.90;99.90;;;;;;2494285;23;20011;-72
2022/04/18 04:27:34;;;;;;;30.52;21.98;;;2.90;99.90;;;;;;2494418;23;20011;-72
2022/04/18 04:28:37;;;;;;;30.05;21.52;;;2.90;99.90;;;;;;2506180;23;20011;-72
2022/04/18 04:29:38;;;;;;;27.67;20.90;;;3.00;99.90;;;;;;2506392;23;20464;-72
2022/04/18 04:30:45;;;;;;;28.80;21.92;;;3.00;99.90;;;;;;2494511;23;20014;-72
2022/04/18 04:31:45;;;;;;;30.58;21.73;;;3.00;99.90;;;;;;2482905;23;20012;-71
2022/04/18 04:32:48;;;;;;;28.38;21.20;;;3.00;99.90;;;;;;2494756;23;20004;-72
2022/04/18 04:33:49;;;;;;;27.67;21.08;;;3.00;99.90;;;;;;2493769;23;20796;-72
2022/04/18 04:34:50;;;;;;;28.80;22.08;;;3.00;99.90;;;;;;2482682;23;20008;-72
2022/04/18 04:36:02;;;;;;;29.48;21.83;;;3.00;99.90;;;;;;2484922;23;20012;-73
2022/04/18 04:37:03;;;;;;;29.65;21.83;;;3.10;99.90;;;;;;2482825;23;20488;-72
2022/04/18 04:38:04;;;;;;;27.05;20.98;;;3.10;99.90;;;;;;2494606;23;20004;-71
2022/04/18 04:39:26;;;;;;;28.95;21.48;;;3.10;99.90;;;;;;2494369;23;20038;-73
2022/04/18 04:40:27;;;;;;;29.27;21.13;;;3.10;99.90;;;;;;2482356;23;20039;-72
2022/04/18 04:41:28;;;;;;;26.95;20.88;;;3.20;99.90;;;;;;2494387;23;20019;-70
2022/04/18 04:42:32;;;;;;;29.63;21.60;;;3.20;99.90;;;;;;2494469;23;20087;-72
2022/04/18 04:43:33;;;;;;;29.10;21.80;;;3.20;99.90;;;;;;2493919;23;20037;-71
2022/04/18 04:44:37;;;;;;;29.67;21.77;;;3.20;99.90;;;;;;2482978;23;20008;-73
2022/04/18 04:45:41;;;;;;;25.85;20.27;;;3.30;99.90;;;;;;2473566;23;20022;-72
2022/04/18 04:46:53;;;;;;;26.80;20.77;;;3.30;99.90;;;;;;2485875;23;20004;-72
2022/04/18 04:47:56;;;;;;;27.55;20.80;;;3.40;99.90;;;;;;2484032;23;20094;-73
2022/04/18 04:48:57;;;;;;;28.75;20.67;;;3.50;99.90;;;;;;2483895;23;20008;-70
2022/04/18 04:49:58;;;;;;;27.98;20.90;;;3.60;99.90;;;;;;2483486;23;20015;-70
2022/04/18 04:51:01;;;;;;;27.02;20.70;;;3.70;99.90;;;;;;2484207;23;20016;-70
2022/04/18 04:52:03;;;;;;;26.10;20.25;;;3.80;99.90;;;;;;2495262;23;20022;-71
2022/04/18 04:53:04;;;;;;;27.98;20.83;;;3.90;99.90;;;;;;2494839;23;20042;-70
2022/04/18 04:54:05;;;;;;;28.52;21.30;;;4.00;99.90;;;;;;2495164;23;20013;-71
2022/04/18 04:55:13;;;;;;;27.58;20.45;;;4.10;99.90;;;;;;2495338;23;20003;-71
2022/04/18 04:56:21;;;;;;;25.25;19.42;;;4.20;99.90;;;;;;2497132;23;20090;-71
2022/04/18 04:57:22;;;;;;;25.33;20.52;;;4.30;99.90;;;;;;2508137;23;20007;-72
2022/04/18 04:58:41;;;;;;;26.95;19.60;;;4.30;99.90;;;;;;2507814;23;20439;-71
2022/04/18 04:59:43;;;;;;;28.73;20.60;;;4.40;99.90;;;;;;2508132;23;20011;-71
2022/04/18 05:00:45;;;;;;;25.27;19.90;;;4.50;99.90;;;;;;2495490;23;20014;-71
2022/04/18 05:02:05;;;;;;;25.92;19.92;;;4.70;99.90;;;;;;2487802;23;20011;-70
2022/04/18 05:03:07;;;;;;;25.30;19.50;;;4.90;99.90;;;;;;2483220;23;20880;-70
2022/04/18 05:04:09;;;;;;;27.08;19.85;;;5.10;99.90;;;;;;2472339;23;20096;-71
2022/04/18 05:05:09;;;;;;;25.88;19.35;;;5.20;99.90;;;;;;2472432;23;20454;-71
2022/04/18 05:06:11;;;;;;;25.88;19.42;;;5.40;99.90;;;;;;2483349;23;20086;-71
2022/04/18 05:07:20;;;;;;;24.25;19.20;;;5.50;99.90;;;;;;2496897;23;20013;-71
2022/04/18 05:08:43;;;;;;;26.80;19.77;;;5.70;99.90;;;;;;2495016;23;20442;-71
2022/04/18 05:09:43;;;;;;;25.80;19.23;;;6.00;99.90;;;;;;2494789;23;20015;-71
2022/04/18 05:10:44;;;;;;;24.70;18.73;;;6.20;99.90;;;;;;2494611;23;20018;-72
2022/04/18 05:11:53;;;;;;;25.15;18.88;;;6.40;99.90;;;;;;2495031;23;20015;-72
2022/04/18 05:12:54;;;;;;;25.95;19.13;;;6.60;99.90;;;;;;2483237;23;20018;-72
2022/04/18 05:13:55;;;;;;;25.80;19.23;;;6.80;99.90;;;;;;2482762;23;20015;-71
2022/04/18 05:15:21;;;;;;;24.02;18.27;;;7.00;99.90;;;;;;2496618;23;20019;-73
2022/04/18 05:16:52;;;;;;;24.35;18.15;;;7.30;99.90;;;;;;2494985;23;20015;-71
2022/04/18 05:18:05;;;;;;;25.27;18.90;;;7.50;99.90;;;;;;2497739;23;20015;-71
2022/04/18 05:19:06;;;;;;;24.02;18.60;;;7.70;99.90;;;;;;2507203;23;20539;-71
2022/04/18 05:20:08;;;;;;;24.52;18.80;;;7.80;99.90;;;;;;2506688;23;20348;-71
2022/04/18 05:21:12;;;;;;;25.15;18.40;;;7.90;99.90;;;;;;2495006;23;20317;-72
2022/04/18 05:22:13;;;;;;;25.02;18.77;;;8.00;99.90;;;;;;2483328;23;20095;-70
2022/04/18 05:23:17;;;;;;;23.70;18.33;;;8.20;99.90;;;;;;2494793;23;20376;-71
2022/04/18 05:24:17;;;;;;;24.63;18.08;;;8.30;99.90;;;;;;2506858;23;20002;-71
2022/04/18 05:25:18;;;;;;;23.95;18.52;;;8.40;99.90;;;;;;2494968;23;19999;-71
2022/04/18 05:26:20;;;;;;;26.38;19.05;;;8.50;99.50;;;;;;2483428;23;20047;-72
2022/04/18 05:27:22;;;;;;;26.70;19.08;;;8.60;98.60;;;;;;2495121;23;20031;-72
2022/04/18 05:28:22;;;;;;;25.33;18.52;;;8.60;98.00;;;;;;2494936;23;20179;-72
2022/04/18 05:29:29;;;;;;;24.17;18.25;;;8.70;97.30;;;;;;2494842;23;20114;-70
2022/04/18 05:30:30;;;;;;;24.70;18.73;;;8.80;96.60;;;;;;2494694;23;20332;-71
2022/04/18 05:31:31;;;;;;;22.92;18.35;;;8.90;95.90;;;;;;2506879;23;20018;-71
2022/04/18 05:32:33;;;;;;;22.10;17.85;;;9.00;95.50;;;;;;2495018;23;20086;-72
2022/04/18 05:33:39;;;;;;;21.83;18.38;;;9.00;94.90;;;;;;2483714;23;20015;-72
2022/04/18 05:34:50;;;;;;;22.38;18.17;;;9.10;94.30;;;;;;2485695;23;20028;-71
2022/04/18 05:35:58;;;;;;;24.23;18.98;;;9.20;93.80;;;;;;2497423;23;20011;-71
2022/04/18 05:37:04;;;;;;;23.42;17.95;;;9.30;93.20;;;;;;2495857;23;20066;-73
2022/04/18 05:38:34;;;;;;;27.33;19.67;;;9.40;93.20;;;;;;2495996;23;20007;-71
2022/04/18 05:39:39;;;;;;;25.35;18.45;;;9.40;92.20;;;;;;2497394;23;20091;-73